sensor_id;sensor_type;location;lat;lon;timestamp;temperature;humidity
21834;DHT22;11079;51.092;3.458;2023-01-15T00:28:04;8.70;99.90
21834;DHT22;11079;51.092;3.458;2023-01-15T00:35:15;8.60;99.90
21834;DHT22;11079;51.092;3.458;2023-01-15T00:38:41;8.60;99.90
21834;DHT22;11079;51.092;3.458;2023-01-15T00:51:46;8.40;99.90
21834;DHT22;11079;51.092;3.458;2023-01-15T00:55:14;8.40;99.90
21834;DHT22;11079;51.092;3.458;2023-01-15T00:58:17;8.30;99.90
21834;DHT22;11079;51.092;3.458;2023-01-15T01:08:40;8.30;99.90
21834;DHT22;11079;51.092;3.458;2023-01-15T01:11:33;8.20;99.90
21834;DHT22;11079;51.092;3.458;2023-01-15T01:25:30;8.20;99.90
21834;DHT22;11079;51.092;3.458;2023-01-15T01:32:03;8.30;99.90
21834;DHT22;11079;51.092;3.458;2023-01-15T01:38:05;8.10;99.90
21834;DHT22;11079;51.092;3.458;2023-01-15T01:51:14;8.10;99.90
21834;DHT22;11079;51.092;3.458;2023-01-15T01:54:33;8.10;99.90
21834;DHT22;11079;51.092;3.458;2023-01-15T01:57:22;8.10;99.90
21834;DHT22;11079;51.092;3.458;2023-01-15T02:06:40;7.90;99.90
21834;DHT22;11079;51.092;3.458;2023-01-15T02:28:17;7.80;99.90
21834;DHT22;11079;51.092;3.458;2023-01-15T02:30:56;7.80;99.90
21834;DHT22;11079;51.092;3.458;2023-01-15T02:33:54;7.80;99.90
21834;DHT22;11079;51.092;3.458;2023-01-15T02:40:34;8.00;99.90
21834;DHT22;11079;51.092;3.458;2023-01-15T02:43:29;7.90;99.90
21834;DHT22;11079;51.092;3.458;2023-01-15T02:46:57;7.90;99.90
21834;DHT22;11079;51.092;3.458;2023-01-15T02:56:43;7.80;99.90
21834;DHT22;11079;51.092;3.458;2023-01-15T03:36:01;7.30;99.90
21834;DHT22;11079;51.092;3.458;2023-01-15T04:09:07;7.50;99.90
21834;DHT22;11079;51.092;3.458;2023-01-15T04:12:03;7.60;99.90
21834;DHT22;11079;51.092;3.458;2023-01-15T04:17:38;7.50;99.90
21834;DHT22;11079;51.092;3.458;2023-01-15T04:27:35;7.60;99.90
21834;DHT22;11079;51.092;3.458;2023-01-15T04:34:21;7.50;99.90
21834;DHT22;11079;51.092;3.458;2023-01-15T04:41:05;7.60;99.90
21834;DHT22;11079;51.092;3.458;2023-01-15T04:44:23;7.50;99.90
21834;DHT22;11079;51.092;3.458;2023-01-15T04:51:05;7.40;99.90
21834;DHT22;11079;51.092;3.458;2023-01-15T05:07:34;7.40;99.90
21834;DHT22;11079;51.092;3.458;2023-01-15T05:10:25;7.30;99.90
21834;DHT22;11079;51.092;3.458;2023-01-15T05:17:04;7.50;99.90
21834;DHT22;11079;51.092;3.458;2023-01-15T05:20:05;7.30;99.90
21834;DHT22;11079;51.092;3.458;2023-01-15T05:36:31;7.20;99.90
21834;DHT22;11079;51.092;3.458;2023-01-15T06:02:54;6.70;99.90
21834;DHT22;11079;51.092;3.458;2023-01-15T06:31:09;6.30;99.90
21834;DHT22;11079;51.092;3.458;2023-01-15T06:53:02;6.10;99.90
21834;DHT22;11079;51.092;3.458;2023-01-15T07:02:40;5.90;99.90
21834;DHT22;11079;51.092;3.458;2023-01-15T07:05:15;5.90;99.90
21834;DHT22;11079;51.092;3.458;2023-01-15T07:08:23;6.00;99.90
21834;DHT22;11079;51.092;3.458;2023-01-15T07:14:34;5.90;99.90
21834;DHT22;11079;51.092;3.458;2023-01-15T07:51:18;6.10;99.90
21834;DHT22;11079;51.092;3.458;2023-01-15T07:58:27;6.00;99.90
21834;DHT22;11079;51.092;3.458;2023-01-15T08:04:57;6.00;99.90
21834;DHT22;11079;51.092;3.458;2023-01-15T08:12:11;6.00;99.90
21834;DHT22;11079;51.092;3.458;2023-01-15T08:38:54;8.60;99.90
21834;DHT22;11079;51.092;3.458;2023-01-15T08:45:09;9.70;99.90
21834;DHT22;11079;51.092;3.458;2023-01-15T08:54:40;10.60;99.90
21834;DHT22;11079;51.092;3.458;2023-01-15T08:57:13;10.70;99.90
21834;DHT22;11079;51.092;3.458;2023-01-15T09:02:51;10.80;99.90
21834;DHT22;11079;51.092;3.458;2023-01-15T09:05:16;11.10;99.90
21834;DHT22;11079;51.092;3.458;2023-01-15T09:07:45;10.80;99.90
21834;DHT22;11079;51.092;3.458;2023-01-15T09:10:14;10.30;99.90
21834;DHT22;11079;51.092;3.458;2023-01-15T09:12:43;9.90;99.90
21834;DHT22;11079;51.092;3.458;2023-01-15T09:15:17;9.20;99.90
21834;DHT22;11079;51.092;3.458;2023-01-15T09:21:28;9.20;99.90
21834;DHT22;11079;51.092;3.458;2023-01-15T09:24:13;8.70;99.90
21834;DHT22;11079;51.092;3.458;2023-01-15T09:26:47;8.80;99.90
21834;DHT22;11079;51.092;3.458;2023-01-15T09:29:21;9.40;99.90
21834;DHT22;11079;51.092;3.458;2023-01-15T09:31:46;9.60;99.90
21834;DHT22;11079;51.092;3.458;2023-01-15T09:34:18;9.40;99.90
21834;DHT22;11079;51.092;3.458;2023-01-15T09:37:02;9.30;99.90
21834;DHT22;11079;51.092;3.458;2023-01-15T09:39:28;9.10;99.90
21834;DHT22;11079;51.092;3.458;2023-01-15T09:42:27;8.40;99.90
21834;DHT22;11079;51.092;3.458;2023-01-15T09:51:16;8.00;99.90
21834;DHT22;11079;51.092;3.458;2023-01-15T09:56:59;7.70;99.90
21834;DHT22;11079;51.092;3.458;2023-01-15T09:59:52;8.50;99.90
21834;DHT22;11079;51.092;3.458;2023-01-15T10:03:13;9.00;99.90
21834;DHT22;11079;51.092;3.458;2023-01-15T10:06:00;9.60;99.90
21834;DHT22;11079;51.092;3.458;2023-01-15T10:08:43;10.00;99.90
21834;DHT22;11079;51.092;3.458;2023-01-15T10:14:58;9.80;99.90
21834;DHT22;11079;51.092;3.458;2023-01-15T10:17:53;9.40;99.90
21834;DHT22;11079;51.092;3.458;2023-01-15T10:31:56;8.20;99.90
21834;DHT22;11079;51.092;3.458;2023-01-15T10:44:27;6.90;99.90
21834;DHT22;11079;51.092;3.458;2023-01-15T10:46:59;7.40;99.90
21834;DHT22;11079;51.092;3.458;2023-01-15T10:49:30;7.90;99.90
21834;DHT22;11079;51.092;3.458;2023-01-15T10:52:22;8.00;99.90
21834;DHT22;11079;51.092;3.458;2023-01-15T10:55:17;7.90;99.90
21834;DHT22;11079;51.092;3.458;2023-01-15T10:58:13;7.80;99.90
21834;DHT22;11079;51.092;3.458;2023-01-15T11:01:13;7.50;99.90
21834;DHT22;11079;51.092;3.458;2023-01-15T11:03:41;7.40;99.90
21834;DHT22;11079;51.092;3.458;2023-01-15T11:06:13;7.30;99.90
21834;DHT22;11079;51.092;3.458;2023-01-15T11:08:44;7.20;99.90
21834;DHT22;11079;51.092;3.458;2023-01-15T11:11:42;7.20;99.90
21834;DHT22;11079;51.092;3.458;2023-01-15T11:14:43;7.10;99.90
21834;DHT22;11079;51.092;3.458;2023-01-15T11:17:48;7.40;99.90
21834;DHT22;11079;51.092;3.458;2023-01-15T11:20:33;7.40;99.90
21834;DHT22;11079;51.092;3.458;2023-01-15T11:23:15;7.50;99.90
21834;DHT22;11079;51.092;3.458;2023-01-15T11:26:02;7.80;99.90
21834;DHT22;11079;51.092;3.458;2023-01-15T11:28:57;8.50;99.90
21834;DHT22;11079;51.092;3.458;2023-01-15T11:31:43;9.20;99.90
21834;DHT22;11079;51.092;3.458;2023-01-15T11:34:20;9.30;99.90
21834;DHT22;11079;51.092;3.458;2023-01-15T11:37:10;9.70;99.90
21834;DHT22;11079;51.092;3.458;2023-01-15T11:40:14;10.30;99.90
21834;DHT22;11079;51.092;3.458;2023-01-15T11:42:58;10.50;99.90
21834;DHT22;11079;51.092;3.458;2023-01-15T11:46:18;10.10;99.90
21834;DHT22;11079;51.092;3.458;2023-01-15T11:49:12;9.90;99.90
21834;DHT22;11079;51.092;3.458;2023-01-15T11:51:58;9.90;99.90
21834;DHT22;11079;51.092;3.458;2023-01-15T11:54:28;10.50;99.90
21834;DHT22;11079;51.092;3.458;2023-01-15T11:57:01;10.00;99.90
21834;DHT22;11079;51.092;3.458;2023-01-15T11:59:27;9.40;99.90
21834;DHT22;11079;51.092;3.458;2023-01-15T12:01:58;9.00;99.90
21834;DHT22;11079;51.092;3.458;2023-01-15T12:04:53;9.50;99.90
21834;DHT22;11079;51.092;3.458;2023-01-15T12:07:22;10.00;99.90
21834;DHT22;11079;51.092;3.458;2023-01-15T12:10:15;10.30;99.90
21834;DHT22;11079;51.092;3.458;2023-01-15T12:13:28;9.90;99.90
21834;DHT22;11079;51.092;3.458;2023-01-15T12:30:02;9.80;99.90
21834;DHT22;11079;51.092;3.458;2023-01-15T12:32:37;9.80;99.90
21834;DHT22;11079;51.092;3.458;2023-01-15T12:35:29;9.50;99.90
21834;DHT22;11079;51.092;3.458;2023-01-15T12:41:31;10.40;99.90
21834;DHT22;11079;51.092;3.458;2023-01-15T12:52:06;8.80;99.90
21834;DHT22;11079;51.092;3.458;2023-01-15T12:54:50;8.60;99.90
21834;DHT22;11079;51.092;3.458;2023-01-15T12:57:34;8.50;99.90
21834;DHT22;11079;51.092;3.458;2023-01-15T13:08:05;9.20;99.90
21834;DHT22;11079;51.092;3.458;2023-01-15T13:33:43;8.50;99.90
21834;DHT22;11079;51.092;3.458;2023-01-15T13:46:19;7.90;99.90
21834;DHT22;11079;51.092;3.458;2023-01-15T13:52:42;7.90;99.90
21834;DHT22;11079;51.092;3.458;2023-01-15T13:55:33;7.90;99.90
21834;DHT22;11079;51.092;3.458;2023-01-15T14:04:48;7.20;99.90
21834;DHT22;11079;51.092;3.458;2023-01-15T14:07:33;7.10;99.90
21834;DHT22;11079;51.092;3.458;2023-01-15T14:10:40;6.90;99.90
21834;DHT22;11079;51.092;3.458;2023-01-15T14:16:42;6.80;99.90
21834;DHT22;11079;51.092;3.458;2023-01-15T14:35:01;6.80;99.90
21834;DHT22;11079;51.092;3.458;2023-01-15T14:38:02;6.80;99.90
21834;DHT22;11079;51.092;3.458;2023-01-15T14:40:31;6.70;99.90
21834;DHT22;11079;51.092;3.458;2023-01-15T14:43:20;6.80;99.90
21834;DHT22;11079;51.092;3.458;2023-01-15T14:48:59;6.70;99.90
21834;DHT22;11079;51.092;3.458;2023-01-15T14:55:20;6.70;99.90
21834;DHT22;11079;51.092;3.458;2023-01-15T15:02:31;6.60;99.90
21834;DHT22;11079;51.092;3.458;2023-01-15T15:05:34;6.70;99.90
21834;DHT22;11079;51.092;3.458;2023-01-15T15:08:17;6.60;99.90
21834;DHT22;11079;51.092;3.458;2023-01-15T15:11:37;6.50;99.90
21834;DHT22;11079;51.092;3.458;2023-01-15T15:23:44;6.50;99.90
21834;DHT22;11079;51.092;3.458;2023-01-15T15:26:32;6.60;99.90
21834;DHT22;11079;51.092;3.458;2023-01-15T15:29:12;6.60;99.90
21834;DHT22;11079;51.092;3.458;2023-01-15T15:31:55;6.40;99.90
21834;DHT22;11079;51.092;3.458;2023-01-15T15:34:33;6.40;99.90
21834;DHT22;11079;51.092;3.458;2023-01-15T15:37:24;6.40;99.90
21834;DHT22;11079;51.092;3.458;2023-01-15T15:40:00;6.30;99.90
21834;DHT22;11079;51.092;3.458;2023-01-15T15:43:01;6.40;99.90
21834;DHT22;11079;51.092;3.458;2023-01-15T15:46:01;6.30;99.90
21834;DHT22;11079;51.092;3.458;2023-01-15T15:48:55;6.20;99.90
21834;DHT22;11079;51.092;3.458;2023-01-15T15:52:14;6.20;99.90
21834;DHT22;11079;51.092;3.458;2023-01-15T15:54:58;6.20;99.90
21834;DHT22;11079;51.092;3.458;2023-01-15T15:57:29;6.20;99.90
21834;DHT22;11079;51.092;3.458;2023-01-15T16:00:43;6.30;99.90
21834;DHT22;11079;51.092;3.458;2023-01-15T16:03:29;6.00;99.90
21834;DHT22;11079;51.092;3.458;2023-01-15T16:06:29;6.00;99.90
21834;DHT22;11079;51.092;3.458;2023-01-15T16:12:14;6.00;99.90
21834;DHT22;11079;51.092;3.458;2023-01-15T16:17:42;6.00;99.90
21834;DHT22;11079;51.092;3.458;2023-01-15T16:24:25;5.90;99.90
21834;DHT22;11079;51.092;3.458;2023-01-15T16:27:31;5.90;99.90
21834;DHT22;11079;51.092;3.458;2023-01-15T16:33:38;5.70;99.90
21834;DHT22;11079;51.092;3.458;2023-01-15T16:36:04;5.90;99.90
21834;DHT22;11079;51.092;3.458;2023-01-15T16:38:34;6.00;99.90
21834;DHT22;11079;51.092;3.458;2023-01-15T16:41:01;6.00;99.90
21834;DHT22;11079;51.092;3.458;2023-01-15T16:43:27;5.90;99.90
21834;DHT22;11079;51.092;3.458;2023-01-15T16:50:56;5.60;99.90
21834;DHT22;11079;51.092;3.458;2023-01-15T16:53:41;5.50;99.90
21834;DHT22;11079;51.092;3.458;2023-01-15T17:02:28;5.00;99.90
21834;DHT22;11079;51.092;3.458;2023-01-15T17:05:20;4.80;99.90
21834;DHT22;11079;51.092;3.458;2023-01-15T17:07:54;4.80;99.90
21834;DHT22;11079;51.092;3.458;2023-01-15T17:10:25;4.80;99.90
21834;DHT22;11079;51.092;3.458;2023-01-15T17:13:22;4.80;99.90
21834;DHT22;11079;51.092;3.458;2023-01-15T17:22:45;5.00;99.90
21834;DHT22;11079;51.092;3.458;2023-01-15T17:25:47;5.20;99.90
21834;DHT22;11079;51.092;3.458;2023-01-15T17:28:13;5.20;99.90
21834;DHT22;11079;51.092;3.458;2023-01-15T17:30:39;5.30;99.90
21834;DHT22;11079;51.092;3.458;2023-01-15T17:33:35;5.30;99.90
21834;DHT22;11079;51.092;3.458;2023-01-15T17:39:50;5.30;99.90
21834;DHT22;11079;51.092;3.458;2023-01-15T17:42:20;5.60;99.90
21834;DHT22;11079;51.092;3.458;2023-01-15T17:44:48;5.60;99.90
21834;DHT22;11079;51.092;3.458;2023-01-15T17:47:38;5.50;99.90
21834;DHT22;11079;51.092;3.458;2023-01-15T17:50:53;5.70;99.90
21834;DHT22;11079;51.092;3.458;2023-01-15T17:53:29;5.80;99.90
21834;DHT22;11079;51.092;3.458;2023-01-15T17:55:58;5.90;99.90
21834;DHT22;11079;51.092;3.458;2023-01-15T17:58:42;5.70;99.90
21834;DHT22;11079;51.092;3.458;2023-01-15T18:01:27;5.40;99.90
21834;DHT22;11079;51.092;3.458;2023-01-15T18:04:31;5.40;99.90
21834;DHT22;11079;51.092;3.458;2023-01-15T18:07:18;5.40;99.90
21834;DHT22;11079;51.092;3.458;2023-01-15T18:09:57;5.30;99.90
21834;DHT22;11079;51.092;3.458;2023-01-15T18:12:27;5.50;99.90
21834;DHT22;11079;51.092;3.458;2023-01-15T18:18:07;5.60;99.90
21834;DHT22;11079;51.092;3.458;2023-01-15T18:20:40;5.70;99.90
21834;DHT22;11079;51.092;3.458;2023-01-15T18:23:16;5.80;99.90
21834;DHT22;11079;51.092;3.458;2023-01-15T18:25:52;5.90;99.90
21834;DHT22;11079;51.092;3.458;2023-01-15T18:28:20;6.20;99.90
21834;DHT22;11079;51.092;3.458;2023-01-15T18:30:57;6.20;99.90
21834;DHT22;11079;51.092;3.458;2023-01-15T18:33:29;6.10;99.90
21834;DHT22;11079;51.092;3.458;2023-01-15T18:36:27;6.00;99.90
21834;DHT22;11079;51.092;3.458;2023-01-15T18:38:55;6.00;99.90
21834;DHT22;11079;51.092;3.458;2023-01-15T18:41:47;6.00;99.90
21834;DHT22;11079;51.092;3.458;2023-01-15T18:44:15;5.90;99.90
21834;DHT22;11079;51.092;3.458;2023-01-15T18:47:05;5.80;99.90
21834;DHT22;11079;51.092;3.458;2023-01-15T18:49:40;5.90;99.90
21834;DHT22;11079;51.092;3.458;2023-01-15T18:55:34;6.10;99.90
21834;DHT22;11079;51.092;3.458;2023-01-15T19:01:24;5.90;99.90
21834;DHT22;11079;51.092;3.458;2023-01-15T19:03:50;5.90;99.90
21834;DHT22;11079;51.092;3.458;2023-01-15T19:06:15;5.90;99.90
21834;DHT22;11079;51.092;3.458;2023-01-15T19:08:41;5.90;99.90
21834;DHT22;11079;51.092;3.458;2023-01-15T19:11:13;6.00;99.90
21834;DHT22;11079;51.092;3.458;2023-01-15T19:13:38;6.20;99.90
21834;DHT22;11079;51.092;3.458;2023-01-15T19:16:05;6.40;99.90
21834;DHT22;11079;51.092;3.458;2023-01-15T19:18:49;6.50;99.90
21834;DHT22;11079;51.092;3.458;2023-01-15T19:21:22;6.60;99.90
21834;DHT22;11079;51.092;3.458;2023-01-15T19:23:56;6.60;99.90
21834;DHT22;11079;51.092;3.458;2023-01-15T19:26:23;6.30;99.90
21834;DHT22;11079;51.092;3.458;2023-01-15T19:28:57;6.20;99.90
21834;DHT22;11079;51.092;3.458;2023-01-15T19:31:37;5.90;99.90
21834;DHT22;11079;51.092;3.458;2023-01-15T19:34:16;5.80;99.90
21834;DHT22;11079;51.092;3.458;2023-01-15T19:37:26;5.70;99.90
21834;DHT22;11079;51.092;3.458;2023-01-15T19:39:54;5.80;99.90
21834;DHT22;11079;51.092;3.458;2023-01-15T19:42:44;5.70;99.90
21834;DHT22;11079;51.092;3.458;2023-01-15T19:49:17;5.80;99.90
21834;DHT22;11079;51.092;3.458;2023-01-15T19:52:28;5.90;99.90
21834;DHT22;11079;51.092;3.458;2023-01-15T19:55:27;5.80;99.90
21834;DHT22;11079;51.092;3.458;2023-01-15T20:01:41;5.60;99.90
21834;DHT22;11079;51.092;3.458;2023-01-15T20:04:10;5.70;99.90
21834;DHT22;11079;51.092;3.458;2023-01-15T20:06:35;5.80;99.90
21834;DHT22;11079;51.092;3.458;2023-01-15T20:09:18;5.90;99.90
21834;DHT22;11079;51.092;3.458;2023-01-15T20:15:29;6.00;99.90
21834;DHT22;11079;51.092;3.458;2023-01-15T20:21:57;5.80;99.90
21834;DHT22;11079;51.092;3.458;2023-01-15T20:24:38;5.70;99.90
21834;DHT22;11079;51.092;3.458;2023-01-15T20:33:38;4.70;99.90
21834;DHT22;11079;51.092;3.458;2023-01-15T20:36:06;4.70;99.90
21834;DHT22;11079;51.092;3.458;2023-01-15T20:38:50;4.80;99.90
21834;DHT22;11079;51.092;3.458;2023-01-15T20:41:32;4.60;99.90
21834;DHT22;11079;51.092;3.458;2023-01-15T20:47:49;4.40;99.90
21834;DHT22;11079;51.092;3.458;2023-01-15T20:53:23;4.20;99.90
21834;DHT22;11079;51.092;3.458;2023-01-15T20:55:49;4.10;99.90
21834;DHT22;11079;51.092;3.458;2023-01-15T20:58:15;4.10;99.90
21834;DHT22;11079;51.092;3.458;2023-01-15T21:01:09;4.10;99.90
21834;DHT22;11079;51.092;3.458;2023-01-15T21:03:36;4.10;99.90
21834;DHT22;11079;51.092;3.458;2023-01-15T21:06:02;4.20;99.90
21834;DHT22;11079;51.092;3.458;2023-01-15T21:08:29;4.20;99.90
21834;DHT22;11079;51.092;3.458;2023-01-15T21:10:57;4.50;99.90
21834;DHT22;11079;51.092;3.458;2023-01-15T21:13:23;4.30;99.90
21834;DHT22;11079;51.092;3.458;2023-01-15T21:16:03;4.50;99.90
21834;DHT22;11079;51.092;3.458;2023-01-15T21:18:32;4.50;99.90
21834;DHT22;11079;51.092;3.458;2023-01-15T21:20:57;4.40;99.90
21834;DHT22;11079;51.092;3.458;2023-01-15T21:23:23;4.40;99.90
21834;DHT22;11079;51.092;3.458;2023-01-15T21:25:49;4.50;99.90
21834;DHT22;11079;51.092;3.458;2023-01-15T21:28:15;4.50;99.90
21834;DHT22;11079;51.092;3.458;2023-01-15T21:30:42;4.70;99.90
21834;DHT22;11079;51.092;3.458;2023-01-15T21:33:09;4.80;99.90
21834;DHT22;11079;51.092;3.458;2023-01-15T21:35:44;4.50;99.90
21834;DHT22;11079;51.092;3.458;2023-01-15T21:38:10;4.50;99.90
21834;DHT22;11079;51.092;3.458;2023-01-15T21:40:36;4.50;99.90
21834;DHT22;11079;51.092;3.458;2023-01-15T21:43:05;4.40;99.90
21834;DHT22;11079;51.092;3.458;2023-01-15T21:45:49;4.40;99.90
21834;DHT22;11079;51.092;3.458;2023-01-15T21:48:16;4.40;99.90
21834;DHT22;11079;51.092;3.458;2023-01-15T21:50:42;4.30;99.90
21834;DHT22;11079;51.092;3.458;2023-01-15T21:53:08;4.40;99.90
21834;DHT22;11079;51.092;3.458;2023-01-15T21:55:33;4.30;99.90
21834;DHT22;11079;51.092;3.458;2023-01-15T21:57:59;4.20;99.90
21834;DHT22;11079;51.092;3.458;2023-01-15T22:00:25;4.30;99.90
21834;DHT22;11079;51.092;3.458;2023-01-15T22:02:51;4.40;99.90
21834;DHT22;11079;51.092;3.458;2023-01-15T22:05:19;4.30;99.90
21834;DHT22;11079;51.092;3.458;2023-01-15T22:07:45;4.40;99.90
21834;DHT22;11079;51.092;3.458;2023-01-15T22:10:11;4.60;99.90
21834;DHT22;11079;51.092;3.458;2023-01-15T22:12:36;4.60;99.90
21834;DHT22;11079;51.092;3.458;2023-01-15T22:15:08;4.70;99.90
21834;DHT22;11079;51.092;3.458;2023-01-15T22:17:37;4.70;99.90
21834;DHT22;11079;51.092;3.458;2023-01-15T22:23:41;4.70;99.90
21834;DHT22;11079;51.092;3.458;2023-01-15T22:26:25;4.70;99.90
21834;DHT22;11079;51.092;3.458;2023-01-15T22:35:31;4.70;99.90
21834;DHT22;11079;51.092;3.458;2023-01-15T22:38:00;4.70;99.90
21834;DHT22;11079;51.092;3.458;2023-01-15T22:40:29;4.60;99.90
21834;DHT22;11079;51.092;3.458;2023-01-15T22:42:58;4.60;99.90
21834;DHT22;11079;51.092;3.458;2023-01-15T22:48:38;4.70;99.90
21834;DHT22;11079;51.092;3.458;2023-01-15T23:01:11;4.90;99.90
